createdAt,value
2022-08-20T00:00:27.567Z,20.21
2022-08-20T00:02:56.255Z,20.15
2022-08-20T00:05:46.551Z,20.18
2022-08-20T00:08:14.479Z,20.15
2022-08-20T00:10:43.013Z,19.99
2022-08-20T00:13:15.626Z,19.93
2022-08-20T00:15:45.866Z,20.04
2022-08-20T00:18:13.469Z,20.04
2022-08-20T00:20:42.762Z,19.97
2022-08-20T00:23:10.718Z,19.95
2022-08-20T00:25:38.428Z,19.98
2022-08-20T00:28:07.152Z,19.99
2022-08-20T00:30:35.499Z,19.92
2022-08-20T00:33:07.434Z,19.92
2022-08-20T00:35:36.429Z,19.94
2022-08-20T00:38:04.423Z,19.94
2022-08-20T00:40:34.997Z,19.94
2022-08-20T00:43:03.096Z,19.71
2022-08-20T00:45:32.452Z,19.78
2022-08-20T00:48:00.078Z,19.93
2022-08-20T00:50:34.068Z,19.98
2022-08-20T00:53:02.841Z,19.65
2022-08-20T00:55:31.716Z,19.50
2022-08-20T00:58:01.956Z,19.53
2022-08-20T01:00:34.224Z,19.60
2022-08-20T01:03:01.733Z,19.68
2022-08-20T01:05:29.893Z,19.57
2022-08-20T01:07:57.685Z,19.48
2022-08-20T01:10:27.738Z,19.39
2022-08-20T01:12:59.430Z,19.37
2022-08-20T01:15:30.792Z,19.29
2022-08-20T01:17:59.344Z,19.39
2022-08-20T01:20:29.156Z,19.53
2022-08-20T01:23:32.809Z,19.59
2022-08-20T01:26:04.179Z,19.39
2022-08-20T01:28:36.134Z,19.38
2022-08-20T01:31:03.907Z,19.41
2022-08-20T01:33:32.097Z,19.37
2022-08-20T01:36:00.601Z,19.49
2022-08-20T01:38:29.313Z,19.51
2022-08-20T01:41:14.954Z,19.57
2022-08-20T01:43:42.623Z,19.63
2022-08-20T01:46:10.612Z,19.66
2022-08-20T01:48:38.668Z,19.72
2022-08-20T01:51:11.772Z,19.77
2022-08-20T01:53:41.740Z,19.66
2022-08-20T01:56:10.707Z,19.72
2022-08-20T01:58:39.476Z,19.76
2022-08-20T02:01:06.845Z,19.76
2022-08-20T02:03:38.792Z,19.73
2022-08-20T02:06:07.031Z,19.78
2022-08-20T02:08:34.218Z,19.78
2022-08-20T02:11:01.509Z,19.78
2022-08-20T02:13:28.801Z,19.63
2022-08-20T02:15:55.948Z,19.52
2022-08-20T02:18:24.673Z,19.59
2022-08-20T02:20:52.382Z,19.82
2022-08-20T02:23:19.847Z,20.01
2022-08-20T02:25:47.774Z,19.98
2022-08-20T02:28:16.575Z,19.91
2022-08-20T02:30:46.384Z,19.86
2022-08-20T02:33:14.460Z,19.66
2022-08-20T02:35:42.823Z,19.78
2022-08-20T02:38:10.502Z,19.85
2022-08-20T02:40:38.429Z,19.69
2022-08-20T02:43:05.675Z,19.64
2022-08-20T02:45:37.303Z,19.65
2022-08-20T02:48:05.429Z,19.64
2022-08-20T02:50:32.591Z,19.71
2022-08-20T02:52:59.772Z,19.64
2022-08-20T02:55:51.950Z,19.59
2022-08-20T02:58:19.740Z,19.63
2022-08-20T03:00:47.226Z,19.66
2022-08-20T03:03:15.440Z,19.71
2022-08-20T03:05:43.902Z,19.69
2022-08-20T03:08:12.239Z,19.58
2022-08-20T03:10:40.810Z,19.41
2022-08-20T03:13:22.793Z,19.49
2022-08-20T03:15:58.789Z,19.54
2022-08-20T03:18:29.253Z,19.57
2022-08-20T03:20:56.967Z,19.43
2022-08-20T03:23:24.857Z,19.18
2022-08-20T03:25:52.160Z,19.04
2022-08-20T03:28:19.799Z,18.90
2022-08-20T03:30:47.527Z,18.97
2022-08-20T03:33:16.453Z,19.07
2022-08-20T03:35:44.165Z,19.01
2022-08-20T03:38:12.262Z,18.96
2022-08-20T03:40:41.599Z,18.98
2022-08-20T03:43:10.193Z,19.23
2022-08-20T03:45:39.008Z,19.33
2022-08-20T03:48:07.971Z,19.35
2022-08-20T03:50:35.874Z,19.38
2022-08-20T03:53:06.521Z,19.36
2022-08-20T03:56:02.416Z,19.47
2022-08-20T03:58:35.153Z,19.46
2022-08-20T04:01:04.652Z,19.53
2022-08-20T04:03:32.238Z,19.58
2022-08-20T04:05:59.710Z,19.63
2022-08-20T04:08:29.320Z,19.54
2022-08-20T04:10:59.841Z,19.36
2022-08-20T04:13:28.037Z,19.22
2022-08-20T04:15:57.088Z,19.29
2022-08-20T04:18:25.822Z,19.35
2022-08-20T04:20:53.587Z,19.29
2022-08-20T04:23:21.512Z,19.37
2022-08-20T04:25:49.004Z,19.36
2022-08-20T04:28:27.191Z,19.23
2022-08-20T04:30:55.355Z,19.20
2022-08-20T04:33:34.116Z,19.30
2022-08-20T04:36:05.626Z,19.30
2022-08-20T04:38:49.992Z,19.27
2022-08-20T04:41:22.572Z,19.09
2022-08-20T04:43:52.037Z,19.11
2022-08-20T04:46:19.440Z,19.23
2022-08-20T04:48:49.037Z,19.34
2022-08-20T04:51:18.299Z,19.40
2022-08-20T04:53:52.069Z,19.42
2022-08-20T04:56:29.463Z,19.40
2022-08-20T04:59:01.109Z,19.32
2022-08-20T05:01:28.416Z,19.37
2022-08-20T05:03:56.307Z,19.42
2022-08-20T05:06:25.935Z,19.47
2022-08-20T05:08:53.860Z,19.56
2022-08-20T05:11:35.324Z,19.52
2022-08-20T05:14:05.908Z,19.39
2022-08-20T05:16:38.427Z,19.34
2022-08-20T05:19:12.420Z,19.36
2022-08-20T05:21:39.682Z,19.40
2022-08-20T05:24:07.449Z,19.52
2022-08-20T05:26:34.917Z,19.65
2022-08-20T05:29:05.010Z,19.53
2022-08-20T05:31:33.782Z,19.38
2022-08-20T05:34:09.779Z,19.39
2022-08-20T05:36:42.365Z,19.50
2022-08-20T05:39:10.442Z,19.60
2022-08-20T05:41:38.529Z,19.64
2022-08-20T05:44:10.006Z,19.67
2022-08-20T05:46:40.968Z,19.75
2022-08-20T05:49:09.237Z,19.82
2022-08-20T05:51:37.095Z,19.88
2022-08-20T05:54:04.951Z,19.92
2022-08-20T05:56:32.957Z,20.06
2022-08-20T05:59:04.543Z,20.24
2022-08-20T06:01:32.640Z,20.30
2022-08-20T06:04:18.242Z,20.33
2022-08-20T06:06:47.492Z,20.36
2022-08-20T06:09:16.092Z,20.30
2022-08-20T06:11:43.268Z,20.33
2022-08-20T06:14:11.016Z,20.48
2022-08-20T06:16:38.257Z,20.60
2022-08-20T06:19:06.309Z,20.57
2022-08-20T06:21:39.785Z,20.68
2022-08-20T06:24:07.905Z,20.81
2022-08-20T06:26:35.619Z,20.89
2022-08-20T06:29:03.433Z,20.93
2022-08-20T06:31:31.043Z,21.05
2022-08-20T06:33:58.385Z,21.18
2022-08-20T06:36:26.126Z,21.36
2022-08-20T06:38:54.968Z,21.47
2022-08-20T06:41:22.179Z,21.43
2022-08-20T06:43:49.404Z,21.27
2022-08-20T06:46:17.177Z,21.33
2022-08-20T06:48:44.497Z,21.39
2022-08-20T06:51:11.841Z,21.51
2022-08-20T06:53:39.218Z,22.13
2022-08-20T06:56:06.727Z,22.38
2022-08-20T06:58:38.370Z,22.16
2022-08-20T07:01:10.534Z,22.04
2022-08-20T07:03:54.848Z,21.97
2022-08-20T07:06:25.990Z,22.06
2022-08-20T07:08:56.406Z,22.04
2022-08-20T07:11:28.104Z,21.97
2022-08-20T07:13:57.257Z,22.11
2022-08-20T07:16:24.656Z,22.17
2022-08-20T07:19:00.262Z,22.24
2022-08-20T07:21:27.666Z,22.18
2022-08-20T07:23:54.945Z,22.20
2022-08-20T07:26:22.197Z,22.22
2022-08-20T07:28:49.527Z,22.16
2022-08-20T07:31:39.018Z,22.14
2022-08-20T07:34:11.453Z,22.15
2022-08-20T07:36:38.722Z,22.28
2022-08-20T07:39:06.799Z,22.38
2022-08-20T07:41:34.435Z,22.43
2022-08-20T07:44:02.454Z,22.55
2022-08-20T07:46:31.809Z,22.75
2022-08-20T07:48:59.158Z,22.85
2022-08-20T07:51:26.428Z,22.95
2022-08-20T07:53:54.169Z,23.00
2022-08-20T07:56:22.787Z,23.08
2022-08-20T07:58:55.335Z,23.18
2022-08-20T08:01:26.140Z,23.24
2022-08-20T08:03:53.912Z,23.31
2022-08-20T08:06:30.519Z,23.38
2022-08-20T08:09:06.247Z,23.51
2022-08-20T08:11:34.929Z,23.60
2022-08-20T08:14:03.623Z,23.64
2022-08-20T08:16:32.472Z,23.64
2022-08-20T08:19:01.987Z,23.66
2022-08-20T08:21:30.921Z,23.75
2022-08-20T08:23:58.303Z,23.81
2022-08-20T08:26:26.334Z,23.88
2022-08-20T08:28:53.581Z,23.93
2022-08-20T08:31:20.804Z,24.06
2022-08-20T08:33:48.014Z,24.09
2022-08-20T08:36:15.841Z,24.18
2022-08-20T08:38:44.460Z,24.28
2022-08-20T08:41:17.794Z,24.35
2022-08-20T08:43:53.372Z,24.38
2022-08-20T08:46:23.947Z,24.40
2022-08-20T08:48:53.585Z,24.48
2022-08-20T08:51:34.943Z,24.61
2022-08-20T08:54:06.721Z,24.81
2022-08-20T08:56:34.688Z,24.99
2022-08-20T08:59:04.289Z,24.97
2022-08-20T09:01:54.879Z,24.99
2022-08-20T09:04:22.047Z,25.02
2022-08-20T09:06:52.267Z,25.11
2022-08-20T09:09:26.116Z,25.22
2022-08-20T09:11:55.155Z,25.32
2022-08-20T09:14:24.895Z,25.47
2022-08-20T09:16:53.594Z,25.58
2022-08-20T09:19:21.445Z,25.76
2022-08-20T09:21:48.823Z,25.86
2022-08-20T09:24:16.467Z,26.03
2022-08-20T09:26:43.815Z,26.21
2022-08-20T09:29:11.375Z,26.32
2022-08-20T09:31:38.927Z,26.25
2022-08-20T09:34:06.313Z,26.47
2022-08-20T09:36:33.608Z,26.60
2022-08-20T09:39:02.997Z,26.77
2022-08-20T09:41:30.926Z,26.94
2022-08-20T09:44:01.166Z,26.86
2022-08-20T09:46:28.365Z,26.90
2022-08-20T09:48:55.976Z,26.93
2022-08-20T09:51:23.301Z,26.91
2022-08-20T09:53:50.755Z,26.96
2022-08-20T09:56:18.108Z,26.89
2022-08-20T09:58:53.432Z,27.02
2022-08-20T10:01:21.519Z,26.98
2022-08-20T10:03:51.309Z,27.03
2022-08-20T10:06:20.893Z,27.09
2022-08-20T10:08:48.899Z,27.21
2022-08-20T10:11:17.962Z,27.23
2022-08-20T10:13:45.645Z,27.19
2022-08-20T10:16:12.965Z,27.18
2022-08-20T10:18:40.350Z,27.19
2022-08-20T10:21:11.526Z,27.19
2022-08-20T10:23:38.770Z,27.20
2022-08-20T10:26:07.602Z,27.24
2022-08-20T10:28:35.330Z,27.21
2022-08-20T10:31:04.645Z,27.23
2022-08-20T10:33:32.301Z,27.30
2022-08-20T10:36:05.794Z,27.36
2022-08-20T10:38:33.093Z,27.41
2022-08-20T10:41:00.445Z,27.34
2022-08-20T10:43:28.273Z,27.44
2022-08-20T10:45:55.640Z,27.37
2022-08-20T10:48:23.293Z,27.29
2022-08-20T10:50:50.925Z,27.33
2022-08-20T10:53:18.481Z,27.33
2022-08-20T10:55:45.765Z,27.51
2022-08-20T10:58:13.300Z,27.65
2022-08-20T11:00:41.096Z,27.63
2022-08-20T11:03:08.302Z,27.75
2022-08-20T11:05:35.621Z,27.87
2022-08-20T11:08:04.002Z,27.81
2022-08-20T11:10:33.987Z,27.83
2022-08-20T11:13:01.769Z,27.80
2022-08-20T11:15:28.925Z,27.77
2022-08-20T11:17:56.885Z,27.80
2022-08-20T11:20:27.661Z,27.95
2022-08-20T11:22:54.888Z,27.99
2022-08-20T11:25:22.133Z,28.04
2022-08-20T11:27:50.295Z,28.13
2022-08-20T11:30:19.655Z,28.10
2022-08-20T11:32:46.993Z,28.26
2022-08-20T11:35:40.920Z,28.27
2022-08-20T11:38:01.504Z,28.24
2022-08-20T11:40:29.856Z,28.21
2022-08-20T11:43:14.335Z,28.39
2022-08-20T11:45:43.301Z,28.43
2022-08-20T11:48:10.741Z,28.30
2022-08-20T11:50:37.957Z,28.28
2022-08-20T11:53:05.186Z,28.34
2022-08-20T11:55:32.557Z,28.60
2022-08-20T11:58:02.133Z,28.76
2022-08-20T12:00:32.619Z,28.70
2022-08-20T12:03:01.979Z,28.62
2022-08-20T12:05:30.115Z,28.58
2022-08-20T12:07:59.999Z,28.43
2022-08-20T12:10:28.217Z,28.40
2022-08-20T12:12:55.924Z,28.34
2022-08-20T12:15:24.163Z,28.27
2022-08-20T12:17:51.376Z,28.24
2022-08-20T12:20:18.779Z,28.22
2022-08-20T12:22:46.006Z,28.25
2022-08-20T12:25:13.425Z,28.21
2022-08-20T12:27:41.741Z,28.36
2022-08-20T12:30:11.210Z,28.34
2022-08-20T12:32:39.102Z,28.33
2022-08-20T12:35:07.182Z,28.36
2022-08-20T12:37:34.305Z,28.50
2022-08-20T12:40:02.240Z,28.58
2022-08-20T12:42:30.628Z,28.59
2022-08-20T12:44:58.413Z,28.63
2022-08-20T12:47:27.104Z,28.72
2022-08-20T12:49:56.074Z,28.70
2022-08-20T12:52:24.622Z,28.77
2022-08-20T12:54:51.966Z,28.68
2022-08-20T12:57:29.390Z,28.66
2022-08-20T12:59:59.089Z,28.66
2022-08-20T13:02:26.958Z,28.63
2022-08-20T13:04:54.322Z,28.68
2022-08-20T13:07:23.004Z,28.79
2022-08-20T13:09:50.922Z,28.75
2022-08-20T13:12:18.184Z,28.75
2022-08-20T13:14:45.451Z,28.90
2022-08-20T13:17:12.673Z,28.92
2022-08-20T13:19:40.263Z,28.79
2022-08-20T13:22:07.523Z,28.76
2022-08-20T13:24:34.888Z,28.74
2022-08-20T13:27:09.978Z,28.71
2022-08-20T13:29:37.357Z,28.71
2022-08-20T13:32:04.844Z,28.69
2022-08-20T13:34:32.119Z,28.71
2022-08-20T13:36:59.577Z,28.81
2022-08-20T13:39:26.833Z,29.10
2022-08-20T13:41:54.075Z,28.98
2022-08-20T13:44:21.362Z,28.87
2022-08-20T13:47:00.346Z,28.82
2022-08-20T13:49:27.649Z,28.71
2022-08-20T13:52:01.011Z,28.66
2022-08-20T13:54:30.490Z,29.03
2022-08-20T13:57:05.406Z,28.98
2022-08-20T13:59:34.977Z,28.89
2022-08-20T14:02:07.053Z,28.84
2022-08-20T14:04:35.202Z,28.78
2022-08-20T14:07:16.146Z,28.76
2022-08-20T14:09:44.746Z,28.75
2022-08-20T14:12:13.358Z,28.73
2022-08-20T14:14:41.188Z,28.69
2022-08-20T14:17:19.280Z,28.73
2022-08-20T14:19:47.676Z,28.65
2022-08-20T14:22:17.717Z,28.59
2022-08-20T14:24:45.541Z,28.66
2022-08-20T14:27:14.337Z,28.64
2022-08-20T14:29:42.801Z,28.68
2022-08-20T14:32:10.376Z,28.70
2022-08-20T14:34:38.002Z,28.72
2022-08-20T14:37:15.862Z,28.73
2022-08-20T14:39:44.140Z,28.76
2022-08-20T14:42:11.412Z,28.77
2022-08-20T14:44:38.652Z,28.78
2022-08-20T14:47:13.394Z,28.73
2022-08-20T14:49:41.167Z,28.74
2022-08-20T14:52:08.493Z,28.73
2022-08-20T14:54:35.787Z,28.78
2022-08-20T14:57:03.314Z,28.82
2022-08-20T14:59:30.708Z,28.85
2022-08-20T15:01:58.005Z,28.86
2022-08-20T15:04:25.991Z,28.90
2022-08-20T15:06:54.613Z,28.94
2022-08-20T15:09:21.961Z,28.95
2022-08-20T15:11:49.613Z,28.92
2022-08-20T15:14:18.400Z,28.93
2022-08-20T15:16:46.946Z,28.94
2022-08-20T15:19:14.180Z,28.97
2022-08-20T15:21:45.304Z,29.02
2022-08-20T15:24:15.685Z,29.03
2022-08-20T15:26:46.910Z,29.02
2022-08-20T15:29:22.590Z,29.00
2022-08-20T15:31:51.080Z,29.00
2022-08-20T15:34:18.560Z,28.91
2022-08-20T15:36:46.222Z,28.83
2022-08-20T15:39:13.526Z,28.80
2022-08-20T15:41:40.756Z,28.80
2022-08-20T15:44:07.961Z,28.77
2022-08-20T15:46:37.482Z,28.70
2022-08-20T15:49:11.092Z,28.65
2022-08-20T15:51:42.856Z,28.64
2022-08-20T15:54:13.806Z,28.65
2022-08-20T15:57:02.174Z,28.68
2022-08-20T15:59:29.350Z,28.76
2022-08-20T16:01:59.370Z,28.83
2022-08-20T16:04:41.998Z,28.88
2022-08-20T16:07:14.786Z,28.89
2022-08-20T16:09:56.638Z,28.87
2022-08-20T16:12:28.115Z,28.83
2022-08-20T16:14:59.648Z,28.77
2022-08-20T16:17:37.170Z,28.80
2022-08-20T16:20:10.565Z,28.73
2022-08-20T16:22:43.360Z,28.66
2022-08-20T16:25:11.873Z,28.61
2022-08-20T16:27:53.190Z,28.66
2022-08-20T16:30:37.809Z,28.62
2022-08-20T16:33:08.324Z,28.58
2022-08-20T16:35:38.124Z,28.56
2022-08-20T16:38:21.304Z,28.55
2022-08-20T16:40:51.450Z,28.56
2022-08-20T16:43:23.032Z,28.50
2022-08-20T16:46:03.183Z,28.46
2022-08-20T16:48:56.074Z,28.42
2022-08-20T16:51:30.912Z,28.41
2022-08-20T16:53:58.704Z,28.42
2022-08-20T16:56:36.607Z,28.35
2022-08-20T16:59:06.215Z,28.32
2022-08-20T17:01:33.712Z,28.31
2022-08-20T17:04:00.964Z,28.28
2022-08-20T17:06:39.813Z,28.30
2022-08-20T17:09:08.970Z,28.25
2022-08-20T17:11:38.021Z,28.21
2022-08-20T17:14:23.512Z,28.19
2022-08-20T17:16:52.406Z,28.15
2022-08-20T17:19:25.633Z,28.12
2022-08-20T17:21:52.873Z,28.11
2022-08-20T17:24:20.190Z,28.07
2022-08-20T17:26:56.200Z,28.03
2022-08-20T17:29:28.810Z,27.99
2022-08-20T17:31:57.682Z,27.96
2022-08-20T17:34:27.829Z,27.93
2022-08-20T17:37:21.628Z,27.89
2022-08-20T17:39:50.483Z,27.85
2022-08-20T17:42:19.269Z,27.85
2022-08-20T17:45:05.429Z,27.81
2022-08-20T17:47:34.886Z,27.76
2022-08-20T17:50:10.973Z,27.73
2022-08-20T17:52:47.289Z,27.70
2022-08-20T17:55:14.661Z,27.67
2022-08-20T17:57:43.510Z,27.63
2022-08-20T18:00:15.394Z,27.61
2022-08-20T18:02:43.562Z,27.57
2022-08-20T18:05:18.638Z,27.55
2022-08-20T18:08:04.661Z,27.51
2022-08-20T18:10:36.075Z,27.48
2022-08-20T18:13:12.207Z,27.42
2022-08-20T18:15:45.058Z,27.40
2022-08-20T18:18:24.579Z,27.37
2022-08-20T18:21:10.391Z,27.34
2022-08-20T18:23:41.380Z,27.33
2022-08-20T18:26:14.450Z,27.36
2022-08-20T18:28:53.900Z,27.35
2022-08-20T18:31:29.942Z,27.28
2022-08-20T18:33:57.332Z,27.27
2022-08-20T18:36:28.692Z,27.30
2022-08-20T18:39:00.877Z,27.21
2022-08-20T18:41:28.110Z,27.20
2022-08-20T18:44:26.821Z,27.20
2022-08-20T18:47:00.785Z,27.14
2022-08-20T18:49:29.688Z,27.07
2022-08-20T18:51:57.441Z,27.10
2022-08-20T18:54:28.098Z,27.07
2022-08-20T18:57:04.409Z,26.99
2022-08-20T18:59:32.837Z,26.97
2022-08-20T19:02:12.971Z,26.94
2022-08-20T19:04:40.272Z,26.86
2022-08-20T19:07:10.289Z,26.81
2022-08-20T19:09:52.718Z,26.77
2022-08-20T19:12:19.988Z,26.70
2022-08-20T19:15:07.261Z,26.74
2022-08-20T19:17:44.002Z,26.62
2022-08-20T19:20:16.324Z,26.51
2022-08-20T19:22:45.686Z,26.47
2022-08-20T19:25:21.851Z,26.44
2022-08-20T19:27:49.201Z,26.41
2022-08-20T19:30:26.587Z,26.34
2022-08-20T19:32:53.892Z,26.36
2022-08-20T19:35:21.909Z,26.18
2022-08-20T19:37:51.038Z,26.12
2022-08-20T19:40:26.494Z,26.10
2022-08-20T19:42:58.087Z,26.08
2022-08-20T19:45:30.680Z,25.94
2022-08-20T19:47:57.962Z,25.81
2022-08-20T19:50:30.954Z,25.71
2022-08-20T19:53:18.454Z,25.61
2022-08-20T19:56:09.628Z,25.49
2022-08-20T19:58:37.485Z,25.42
2022-08-20T20:01:09.114Z,25.44
2022-08-20T20:03:39.621Z,25.45
2022-08-20T20:06:16.900Z,25.44
2022-08-20T20:08:51.902Z,25.43
2022-08-20T20:11:23.556Z,25.38
2022-08-20T20:13:50.909Z,25.27
2022-08-20T20:16:19.618Z,25.26
2022-08-20T20:19:03.978Z,25.23
2022-08-20T20:21:40.714Z,25.26
2022-08-20T20:24:08.463Z,25.31
2022-08-20T20:26:37.106Z,25.28
2022-08-20T20:29:11.945Z,25.25
2022-08-20T20:31:42.321Z,25.20
2022-08-20T20:34:13.209Z,25.16
2022-08-20T20:36:45.126Z,25.15
2022-08-20T20:39:27.364Z,25.10
2022-08-20T20:41:56.037Z,25.04
2022-08-20T20:44:25.522Z,25.05
2022-08-20T20:46:55.425Z,24.96
2022-08-20T20:49:34.898Z,24.93
2022-08-20T20:52:15.031Z,24.96
2022-08-20T20:54:44.656Z,24.93
2022-08-20T20:57:17.881Z,24.93
2022-08-20T20:59:48.339Z,24.86
2022-08-20T21:02:16.563Z,24.77
2022-08-20T21:04:44.820Z,24.72
2022-08-20T21:07:13.623Z,24.63
2022-08-20T21:09:41.782Z,24.57
2022-08-20T21:12:10.808Z,24.58
2022-08-20T21:14:38.111Z,24.59
2022-08-20T21:17:07.668Z,24.43
2022-08-20T21:19:35.156Z,24.31
2022-08-20T21:22:12.317Z,24.39
2022-08-20T21:24:39.551Z,24.58
2022-08-20T21:27:07.422Z,24.39
2022-08-20T21:29:35.465Z,24.49
2022-08-20T21:32:02.874Z,24.49
2022-08-20T21:34:30.220Z,24.65
2022-08-20T21:36:57.426Z,24.58
2022-08-20T21:39:26.634Z,24.52
2022-08-20T21:41:55.093Z,24.45
2022-08-20T21:44:24.730Z,24.38
2022-08-20T21:46:52.940Z,24.35
2022-08-20T21:49:20.572Z,24.30
2022-08-20T21:51:48.078Z,24.28
2022-08-20T21:54:15.963Z,24.25
2022-08-20T21:56:45.032Z,24.25
2022-08-20T21:59:12.259Z,24.25
2022-08-20T22:01:39.598Z,24.26
2022-08-20T22:04:07.082Z,24.28
2022-08-20T22:06:34.496Z,24.28
2022-08-20T22:09:01.797Z,24.28
2022-08-20T22:11:29.125Z,24.26
2022-08-20T22:13:56.567Z,24.28
2022-08-20T22:16:24.309Z,24.32
2022-08-20T22:18:51.885Z,24.24
2022-08-20T22:21:27.127Z,24.25
2022-08-20T22:23:57.237Z,24.26
2022-08-20T22:26:27.315Z,24.27
2022-08-20T22:28:55.150Z,24.34
2022-08-20T22:31:24.708Z,24.37
2022-08-20T22:33:51.981Z,24.31
2022-08-20T22:36:19.321Z,24.23
2022-08-20T22:38:47.310Z,24.22
2022-08-20T22:41:22.239Z,24.13
2022-08-20T22:43:56.515Z,24.14
2022-08-20T22:46:30.543Z,24.20
2022-08-20T22:48:57.902Z,24.15
2022-08-20T22:51:30.405Z,24.24
2022-08-20T22:53:58.412Z,24.19
2022-08-20T22:56:25.906Z,24.06
2022-08-20T22:58:53.149Z,24.09
2022-08-20T23:01:20.568Z,24.04
2022-08-20T23:03:48.024Z,23.94
2022-08-20T23:06:15.430Z,23.80
2022-08-20T23:08:42.645Z,23.67
2022-08-20T23:11:09.880Z,23.60
2022-08-20T23:13:37.804Z,23.53
2022-08-20T23:16:06.663Z,23.33
2022-08-20T23:18:33.923Z,23.25
2022-08-20T23:21:01.447Z,23.22
2022-08-20T23:23:28.780Z,23.20
2022-08-20T23:25:56.035Z,23.22
2022-08-20T23:28:25.072Z,23.22
2022-08-20T23:30:52.619Z,23.28
2022-08-20T23:33:19.963Z,23.28
2022-08-20T23:35:47.197Z,23.29
2022-08-20T23:38:14.603Z,23.29
2022-08-20T23:40:42.306Z,23.24
2022-08-20T23:43:09.754Z,23.16
2022-08-20T23:45:39.621Z,23.10
2022-08-20T23:48:07.920Z,23.06
2022-08-20T23:50:35.287Z,22.97
2022-08-20T23:53:02.670Z,22.97
2022-08-20T23:55:29.884Z,22.95
2022-08-20T23:57:57.182Z,22.97
